createdAt,value
2019-04-20T00:00:37.173Z,10.87
2019-04-20T00:03:05.555Z,13.27
2019-04-20T00:05:35.151Z,14.23
2019-04-20T00:08:09.128Z,11.03
2019-04-20T00:10:46.547Z,12.57
2019-04-20T00:13:20.779Z,12.17
2019-04-20T00:15:38.965Z,14.60
2019-04-20T00:18:11.479Z,14.20
2019-04-20T00:20:42.206Z,16.40
2019-04-20T00:23:31.588Z,10.40
2019-04-20T00:26:22.343Z,11.40
2019-04-20T00:29:02.973Z,13.73
2019-04-20T00:31:29.765Z,12.60
2019-04-20T00:33:56.085Z,12.13
2019-04-20T00:36:18.569Z,15.07
2019-04-20T00:38:51.979Z,9.80
2019-04-20T00:41:22.117Z,13.10
2019-04-20T00:43:51.143Z,18.67
2019-04-20T00:46:28.126Z,15.40
2019-04-20T00:49:00.794Z,13.87
2019-04-20T00:51:39.594Z,11.90
2019-04-20T00:53:57.287Z,14.60
2019-04-20T00:56:26.398Z,14.87
2019-04-20T00:59:10.553Z,12.87
2019-04-20T01:01:47.545Z,13.77
2019-04-20T01:04:32.795Z,11.43
2019-04-20T01:06:46.335Z,13.60
2019-04-20T01:09:20.299Z,14.87
2019-04-20T01:11:50.999Z,13.23
2019-04-20T01:14:30.285Z,13.07
2019-04-20T01:17:00.060Z,10.90
2019-04-20T01:19:22.981Z,14.53
2019-04-20T01:21:59.654Z,14.37
2019-04-20T01:24:31.367Z,12.93
2019-04-20T01:27:00.439Z,12.87
2019-04-20T01:29:36.869Z,11.77
2019-04-20T01:32:14.251Z,12.57
2019-04-20T01:34:41.854Z,13.77
2019-04-20T01:37:14.487Z,12.00
2019-04-20T01:39:38.137Z,15.50
2019-04-20T01:42:02.417Z,12.93
2019-04-20T01:44:38.532Z,11.17
2019-04-20T01:47:06.344Z,13.40
2019-04-20T01:49:36.863Z,14.43
2019-04-20T01:52:16.044Z,16.03
2019-04-20T01:54:56.451Z,12.83
2019-04-20T01:57:21.401Z,10.60
2019-04-20T01:59:55.262Z,16.27
2019-04-20T02:02:26.675Z,12.93
2019-04-20T02:05:04.434Z,11.70
2019-04-20T02:07:35.512Z,12.03
2019-04-20T02:10:03.661Z,12.67
2019-04-20T02:12:34.615Z,12.47
2019-04-20T02:15:04.785Z,11.53
2019-04-20T02:17:40.763Z,12.87
2019-04-20T02:20:31.898Z,11.43
2019-04-20T02:22:56.965Z,13.40
2019-04-20T02:25:10.140Z,12.60
2019-04-20T02:27:47.127Z,13.60
2019-04-20T02:30:51.756Z,9.67
2019-04-20T02:33:32.189Z,12.03
2019-04-20T02:35:54.215Z,10.47
2019-04-20T02:38:40.664Z,9.30
2019-04-20T02:40:57.737Z,13.43
2019-04-20T02:43:43.901Z,12.27
2019-04-20T02:46:15.320Z,12.20
2019-04-20T02:48:35.683Z,13.93
2019-04-20T02:51:05.772Z,16.33
2019-04-20T02:53:41.184Z,12.07
2019-04-20T02:56:17.319Z,15.30
2019-04-20T02:58:41.726Z,11.73
2019-04-20T03:01:05.153Z,11.53
2019-04-20T03:03:23.671Z,13.03
2019-04-20T03:05:59.765Z,12.17
2019-04-20T03:08:26.281Z,11.67
2019-04-20T03:11:09.333Z,14.43
2019-04-20T03:13:36.703Z,12.13
2019-04-20T03:16:04.471Z,12.50
2019-04-20T03:18:35.030Z,13.83
2019-04-20T03:21:12.870Z,13.73
2019-04-20T03:23:44.449Z,13.17
2019-04-20T03:26:19.007Z,15.70
2019-04-20T03:29:01.431Z,14.93
2019-04-20T03:36:59.254Z,13.83
2019-04-20T03:39:25.592Z,11.53
2019-04-20T03:41:44.401Z,13.40
2019-04-20T03:44:15.642Z,11.97
2019-04-20T03:46:47.918Z,15.63
2019-04-20T03:49:40.913Z,16.63
2019-04-20T03:52:03.668Z,19.13
2019-04-20T03:54:36.960Z,17.13
2019-04-20T03:57:17.321Z,17.13
2019-04-20T03:59:57.675Z,18.57
2019-04-20T04:02:57.697Z,23.17
2019-04-20T04:04:59.392Z,16.53
2019-04-20T04:07:22.572Z,19.73
2019-04-20T04:10:06.688Z,19.47
2019-04-20T04:12:43.037Z,17.77
2019-04-20T04:15:12.596Z,19.43
2019-04-20T04:17:44.985Z,16.50
2019-04-20T04:20:17.524Z,16.37
2019-04-20T04:23:08.400Z,15.00
2019-04-20T04:25:25.173Z,16.37
2019-04-20T04:28:06.347Z,16.50
2019-04-20T04:30:31.625Z,17.20
2019-04-20T04:33:33.990Z,18.27
2019-04-20T04:35:29.726Z,22.00
2019-04-20T04:38:06.905Z,21.53
2019-04-20T04:40:49.710Z,16.10
2019-04-20T04:43:18.707Z,16.53
2019-04-20T04:45:27.243Z,15.83
2019-04-20T04:47:55.679Z,17.30
2019-04-20T04:50:28.297Z,17.00
2019-04-20T04:53:04.589Z,16.50
2019-04-20T04:55:37.001Z,15.67
2019-04-20T04:58:00.190Z,22.00
2019-04-20T05:00:33.142Z,18.60
2019-04-20T05:03:22.127Z,17.90
2019-04-20T05:05:58.778Z,12.83
2019-04-20T05:08:18.062Z,11.47
2019-04-20T05:10:39.169Z,12.00
2019-04-20T05:13:09.183Z,13.90
2019-04-20T05:15:54.151Z,12.20
2019-04-20T05:18:34.440Z,16.73
2019-04-20T05:21:06.304Z,16.00
2019-04-20T05:23:35.346Z,15.70
2019-04-20T05:26:26.857Z,15.17
2019-04-20T05:28:53.295Z,11.23
2019-04-20T05:31:18.508Z,16.53
2019-04-20T05:34:14.408Z,16.23
2019-04-20T05:36:41.432Z,15.40
2019-04-20T05:39:26.809Z,11.37
2019-04-20T05:41:41.843Z,10.13
2019-04-20T05:44:10.365Z,15.03
2019-04-20T05:46:45.956Z,21.73
2019-04-20T05:49:21.973Z,15.70
2019-04-20T05:51:47.660Z,11.90
2019-04-20T05:54:18.981Z,10.37
2019-04-20T05:56:51.075Z,14.83
2019-04-20T05:59:19.149Z,12.10
2019-04-20T06:01:58.597Z,15.40
2019-04-20T06:04:41.022Z,14.73
2019-04-20T06:06:56.492Z,9.77
2019-04-20T06:09:30.801Z,13.33
2019-04-20T06:12:07.713Z,9.33
2019-04-20T06:14:19.262Z,15.13
2019-04-20T06:17:11.284Z,9.80
2019-04-20T06:19:42.204Z,14.00
2019-04-20T06:22:18.771Z,11.30
2019-04-20T06:25:14.511Z,11.80
2019-04-20T06:27:35.291Z,11.43
2019-04-20T06:30:01.443Z,9.20
2019-04-20T06:33:28.573Z,11.03
2019-04-20T06:36:06.042Z,11.90
2019-04-20T06:38:38.668Z,11.67
2019-04-20T06:40:53.961Z,12.87
2019-04-20T06:43:27.601Z,9.97
2019-04-20T06:46:01.396Z,12.90
2019-04-20T06:48:32.022Z,9.13
2019-04-20T06:50:48.274Z,11.67
2019-04-20T06:53:46.955Z,8.77
2019-04-20T06:56:05.324Z,9.57
2019-04-20T07:01:09.322Z,15.97
2019-04-20T07:03:51.307Z,10.43
2019-04-20T07:06:24.499Z,9.57
2019-04-20T07:08:55.424Z,11.30
2019-04-20T07:11:10.947Z,14.27
2019-04-20T07:13:33.082Z,9.47
2019-04-20T07:16:18.107Z,12.83
2019-04-20T07:19:01.321Z,10.17
2019-04-20T07:22:06.595Z,10.43
2019-04-20T07:24:24.939Z,10.97
2019-04-20T07:26:49.218Z,9.20
2019-04-20T07:29:26.970Z,10.83
2019-04-20T07:31:50.026Z,13.23
2019-04-20T07:34:23.381Z,10.73
2019-04-20T07:37:19.348Z,11.17
2019-04-20T07:39:28.107Z,10.50
2019-04-20T07:42:00.376Z,12.30
2019-04-20T07:44:36.396Z,9.17
2019-04-20T07:47:07.838Z,11.53
2019-04-20T07:49:30.136Z,10.03
2019-04-20T07:51:46.089Z,13.47
2019-04-20T07:54:40.138Z,11.27
2019-04-20T07:57:05.697Z,10.70
2019-04-20T07:59:28.882Z,14.03
2019-04-20T08:02:21.373Z,11.67
2019-04-20T08:04:42.499Z,11.10
2019-04-20T08:07:02.088Z,10.13
2019-04-20T08:09:34.928Z,11.80
2019-04-20T08:12:25.887Z,14.77
2019-04-20T08:14:56.806Z,17.43
2019-04-20T08:17:30.544Z,12.53
2019-04-20T08:19:52.858Z,13.13
2019-04-20T08:22:27.264Z,12.68
2019-04-20T08:24:52.350Z,12.17
2019-04-20T08:27:18.440Z,10.57
2019-04-20T08:30:12.503Z,12.53
2019-04-20T08:32:58.449Z,11.83
2019-04-20T08:35:39.759Z,12.60
2019-04-20T08:38:26.444Z,10.47
2019-04-20T08:40:37.411Z,11.50
2019-04-20T08:43:20.093Z,11.53
2019-04-20T08:45:46.731Z,10.05
2019-04-20T08:48:17.320Z,12.40
2019-04-20T08:50:44.993Z,13.32
2019-04-20T08:53:23.578Z,14.05
2019-04-20T08:55:42.526Z,16.57
2019-04-20T08:57:59.948Z,10.35
2019-04-20T09:00:35.774Z,13.60
2019-04-20T09:03:09.158Z,14.45
2019-04-20T09:05:42.494Z,11.28
2019-04-20T09:08:14.632Z,11.95
2019-04-20T09:10:49.579Z,15.93
2019-04-20T09:13:15.992Z,14.40
2019-04-20T09:15:36.525Z,19.50
2019-04-20T09:18:20.601Z,14.25
2019-04-20T09:20:50.718Z,15.78
2019-04-20T09:23:26.562Z,12.95
2019-04-20T09:26:05.926Z,15.98
2019-04-20T09:28:29.800Z,13.08
2019-04-20T09:31:19.875Z,10.85
2019-04-20T09:33:55.918Z,9.95
2019-04-20T09:36:40.838Z,11.48
2019-04-20T09:39:25.664Z,14.58
2019-04-20T09:42:00.614Z,12.35
2019-04-20T09:44:20.041Z,11.95
2019-04-20T09:46:55.012Z,11.08
2019-04-20T09:49:37.439Z,13.90
2019-04-20T09:52:09.549Z,13.50
2019-04-20T09:54:44.103Z,13.65
2019-04-20T09:57:13.309Z,12.43
2019-04-20T09:59:44.780Z,12.35
2019-04-20T10:02:06.581Z,11.53
2019-04-20T10:04:27.393Z,14.43
2019-04-20T10:07:02.562Z,13.22
2019-04-20T10:09:32.574Z,11.75
2019-04-20T10:11:59.679Z,16.50
2019-04-20T10:14:29.215Z,12.20
2019-04-20T10:16:59.956Z,11.20
2019-04-20T10:19:33.663Z,16.67
2019-04-20T10:22:02.517Z,11.33
2019-04-20T10:24:32.790Z,10.72
2019-04-20T10:27:03.067Z,16.95
2019-04-20T10:29:33.670Z,12.85
2019-04-20T10:32:08.829Z,11.33
2019-04-20T10:34:34.730Z,18.70
2019-04-20T10:37:06.087Z,11.55
2019-04-20T10:39:38.481Z,11.85
2019-04-20T10:42:08.240Z,8.70
2019-04-20T10:44:38.661Z,14.25
2019-04-20T10:47:09.183Z,12.60
2019-04-20T10:49:40.830Z,12.50
2019-04-20T10:52:11.595Z,9.98
2019-04-20T10:54:42.583Z,11.45
2019-04-20T10:57:13.305Z,13.83
2019-04-20T10:59:43.684Z,11.68
2019-04-20T11:02:13.984Z,15.03
2019-04-20T11:04:46.480Z,13.05
2019-04-20T11:07:16.598Z,9.18
2019-04-20T11:09:47.145Z,16.15
2019-04-20T11:12:16.731Z,13.22
2019-04-20T11:14:46.163Z,10.75
2019-04-20T11:17:16.369Z,12.33
2019-04-20T11:19:47.442Z,11.68
2019-04-20T11:22:17.009Z,14.70
2019-04-20T11:24:46.474Z,9.85
2019-04-20T11:27:16.315Z,18.30
2019-04-20T11:29:46.378Z,11.57
2019-04-20T11:32:16.167Z,10.82
2019-04-20T11:34:47.035Z,8.15
2019-04-20T11:37:17.248Z,9.08
2019-04-20T11:39:47.343Z,10.18
2019-04-20T11:42:17.366Z,9.75
2019-04-20T11:44:48.818Z,9.68
2019-04-20T11:47:18.902Z,9.93
2019-04-20T11:49:49.487Z,11.50
2019-04-20T11:52:22.841Z,9.95
2019-04-20T11:54:52.508Z,14.78
2019-04-20T11:57:22.191Z,16.40
2019-04-20T11:59:52.894Z,13.00
2019-04-20T12:02:30.288Z,9.68
2019-04-20T12:05:10.093Z,15.65
2019-04-20T12:07:33.715Z,10.50
2019-04-20T12:10:09.040Z,10.13
2019-04-20T12:12:41.549Z,8.20
2019-04-20T12:15:06.583Z,13.53
2019-04-20T12:17:36.070Z,16.70
2019-04-20T12:20:08.076Z,10.78
2019-04-20T12:22:37.691Z,16.00
2019-04-20T12:25:07.911Z,13.15
2019-04-20T12:27:41.945Z,10.68
2019-04-20T12:30:10.499Z,17.12
2019-04-20T12:32:42.934Z,10.08
2019-04-20T12:35:12.142Z,11.43
2019-04-20T12:37:43.046Z,9.33
2019-04-20T12:40:14.238Z,14.40
2019-04-20T12:42:44.243Z,23.40
2019-04-20T12:45:15.699Z,14.35
2019-04-20T12:47:47.006Z,9.60
2019-04-20T12:50:17.373Z,43.85
2019-04-20T12:52:48.307Z,10.38
2019-04-20T12:55:18.823Z,10.72
2019-04-20T12:57:48.478Z,13.15
2019-04-20T13:00:19.522Z,14.33
2019-04-20T13:02:49.589Z,32.67
2019-04-20T13:05:19.557Z,14.45
2019-04-20T13:07:55.895Z,19.55
2019-04-20T13:10:21.456Z,12.28
2019-04-20T13:12:52.624Z,11.60
2019-04-20T13:15:28.925Z,14.73
2019-04-20T13:17:59.017Z,13.83
2019-04-20T13:20:30.136Z,15.03
2019-04-20T13:23:02.625Z,11.55
2019-04-20T13:25:31.098Z,9.90
2019-04-20T13:28:01.018Z,9.33
2019-04-20T13:30:32.213Z,11.60
2019-04-20T13:33:02.114Z,17.40
2019-04-20T13:35:32.335Z,11.05
2019-04-20T13:38:05.475Z,13.75
2019-04-20T13:40:35.705Z,12.00
2019-04-20T13:43:05.890Z,14.05
2019-04-20T13:45:37.143Z,11.35
2019-04-20T13:48:08.789Z,11.10
2019-04-20T13:50:40.068Z,12.85
2019-04-20T13:53:11.322Z,9.38
2019-04-20T13:55:42.360Z,10.63
2019-04-20T13:58:31.807Z,11.95
2019-04-20T14:01:09.340Z,9.58
2019-04-20T14:03:40.787Z,11.65
2019-04-20T14:06:11.077Z,11.33
2019-04-20T14:08:41.734Z,10.70
2019-04-20T14:11:11.876Z,9.95
2019-04-20T14:13:47.198Z,12.73
2019-04-20T14:16:14.397Z,8.55
2019-04-20T14:18:45.027Z,11.18
2019-04-20T14:21:16.367Z,10.15
2019-04-20T14:23:46.529Z,9.63
2019-04-20T14:26:16.794Z,8.30
2019-04-20T14:28:47.051Z,10.63
2019-04-20T14:31:17.141Z,9.90
2019-04-20T14:33:46.822Z,12.35
2019-04-20T14:36:16.939Z,8.50
2019-04-20T14:38:48.179Z,10.75
2019-04-20T14:41:22.345Z,11.53
2019-04-20T14:43:53.072Z,12.00
2019-04-20T14:46:23.027Z,10.15
2019-04-20T14:48:52.653Z,10.32
2019-04-20T14:51:23.632Z,8.45
2019-04-20T14:53:53.770Z,9.10
2019-04-20T14:56:23.540Z,9.08
2019-04-20T14:58:57.679Z,9.48
2019-04-20T15:01:34.794Z,8.60
2019-04-20T15:04:10.000Z,9.23
2019-04-20T15:06:37.980Z,10.05
2019-04-20T15:09:08.798Z,9.08
2019-04-20T15:11:41.726Z,9.40
2019-04-20T15:14:11.034Z,7.95
2019-04-20T15:16:40.604Z,11.20
2019-04-20T15:19:11.874Z,8.55
2019-04-20T15:21:42.991Z,13.18
2019-04-20T15:24:13.378Z,12.60
2019-04-20T15:26:42.930Z,7.08
2019-04-20T15:29:12.545Z,7.17
2019-04-20T15:31:42.055Z,5.87
2019-04-20T15:34:12.830Z,8.85
2019-04-20T15:36:52.006Z,8.25
2019-04-20T15:39:21.651Z,6.53
2019-04-20T15:41:51.491Z,6.92
2019-04-20T15:44:21.618Z,9.05
2019-04-20T15:46:51.169Z,7.22
2019-04-20T15:49:22.003Z,6.65
2019-04-20T15:51:52.167Z,8.25
2019-04-20T15:54:23.172Z,11.10
2019-04-20T15:56:58.792Z,6.78
2019-04-20T15:59:24.792Z,5.65
2019-04-20T16:02:03.014Z,7.12
2019-04-20T16:04:41.132Z,6.30
2019-04-20T16:07:09.064Z,7.10
2019-04-20T16:09:39.899Z,7.78
2019-04-20T16:12:10.930Z,5.85
2019-04-20T16:14:41.653Z,7.55
2019-04-20T16:17:12.495Z,4.60
2019-04-20T16:19:50.957Z,8.30
2019-04-20T16:22:15.493Z,5.28
2019-04-20T16:24:49.444Z,5.03
2019-04-20T16:27:29.685Z,6.83
2019-04-20T16:29:59.910Z,7.35
2019-04-20T16:32:30.381Z,5.90
2019-04-20T16:35:00.303Z,5.60
2019-04-20T16:37:31.082Z,6.37
2019-04-20T16:40:01.094Z,7.05
2019-04-20T16:42:34.177Z,4.78
2019-04-20T16:45:05.413Z,4.60
2019-04-20T16:47:36.755Z,6.70
2019-04-20T16:50:08.751Z,6.97
2019-04-20T16:52:38.978Z,4.30
2019-04-20T16:55:11.322Z,5.85
2019-04-20T16:57:41.702Z,2.98
2019-04-20T17:00:11.956Z,3.67
2019-04-20T17:02:42.399Z,7.83
2019-04-20T17:05:13.399Z,6.28
2019-04-20T17:07:44.988Z,6.05
2019-04-20T17:10:16.209Z,2.35
2019-04-20T17:12:46.062Z,6.70
2019-04-20T17:15:16.274Z,3.95
2019-04-20T17:17:48.141Z,5.40
2019-04-20T17:20:17.731Z,2.83
2019-04-20T17:22:48.509Z,4.65
2019-04-20T17:25:19.637Z,2.33
2019-04-20T17:27:55.065Z,2.17
2019-04-20T17:30:33.660Z,4.10
2019-04-20T17:33:06.166Z,5.42
2019-04-20T17:35:47.800Z,3.45
2019-04-20T17:38:08.972Z,3.10
2019-04-20T17:40:56.363Z,3.60
2019-04-20T17:43:19.763Z,2.70
2019-04-20T17:45:50.453Z,3.98
2019-04-20T17:48:26.994Z,2.85
2019-04-20T17:53:54.621Z,6.37
2019-04-20T17:56:20.197Z,8.18
2019-04-20T17:58:50.233Z,10.75
2019-04-20T18:01:35.751Z,7.10
2019-04-20T18:04:27.794Z,8.70
2019-04-20T18:06:44.123Z,5.17
2019-04-20T18:09:11.731Z,12.03
2019-04-20T18:11:40.323Z,16.95
2019-04-20T18:14:25.182Z,9.25
2019-04-20T18:17:03.475Z,13.08
2019-04-20T18:19:22.878Z,11.80
2019-04-20T18:21:51.665Z,12.28
2019-04-20T18:24:42.332Z,10.90
2019-04-20T18:27:23.269Z,14.07
2019-04-20T18:29:43.631Z,11.95
2019-04-20T18:32:02.043Z,11.73
2019-04-20T18:34:34.314Z,13.38
2019-04-20T18:37:06.467Z,9.20
2019-04-20T18:39:45.255Z,12.20
2019-04-20T18:42:13.084Z,7.50
2019-04-20T18:44:56.846Z,9.53
2019-04-20T18:47:31.194Z,7.70
2019-04-20T18:49:50.487Z,12.17
2019-04-20T18:52:11.926Z,7.03
2019-04-20T18:54:44.989Z,7.20
2019-04-20T18:57:17.998Z,7.53
2019-04-20T18:59:49.224Z,10.97
2019-04-20T19:02:20.006Z,8.50
2019-04-20T19:04:45.930Z,11.77
2019-04-20T19:07:15.321Z,9.90
2019-04-20T19:09:44.917Z,9.57
2019-04-20T19:12:16.592Z,8.83
2019-04-20T19:15:12.049Z,11.00
2019-04-20T19:17:45.194Z,10.53
2019-04-20T19:20:14.041Z,11.07
2019-04-20T19:22:44.122Z,10.30
2019-04-20T19:25:19.827Z,9.70
2019-04-20T19:27:50.857Z,10.30
2019-04-20T19:30:27.425Z,14.13
2019-04-20T19:33:04.961Z,14.90
2019-04-20T19:35:33.555Z,13.77
2019-04-20T19:38:03.369Z,14.63
2019-04-20T19:40:33.636Z,20.07
2019-04-20T19:43:03.531Z,17.07
2019-04-20T19:45:46.298Z,15.60
2019-04-20T19:48:12.278Z,17.67
2019-04-20T19:50:48.486Z,15.30
2019-04-20T19:53:21.171Z,17.27
2019-04-20T19:55:45.186Z,16.43
2019-04-20T19:58:13.965Z,20.40
2019-04-20T20:00:43.896Z,12.43
2019-04-20T20:03:15.385Z,16.17
2019-04-20T20:05:48.404Z,15.73
2019-04-20T20:08:20.978Z,15.37
2019-04-20T20:10:48.453Z,10.90
2019-04-20T20:13:18.358Z,17.00
2019-04-20T20:16:02.371Z,13.77
2019-04-20T20:18:39.143Z,8.67
2019-04-20T20:21:12.223Z,11.93
2019-04-20T20:23:30.004Z,12.77
2019-04-20T20:26:02.402Z,11.57
2019-04-20T20:28:40.404Z,9.37
2019-04-20T20:31:12.800Z,10.77
2019-04-20T20:33:49.425Z,7.77
2019-04-20T20:36:12.643Z,18.77
2019-04-20T20:38:40.034Z,11.70
2019-04-20T20:41:17.386Z,13.90
2019-04-20T20:43:51.181Z,8.43
2019-04-20T20:46:19.707Z,11.37
2019-04-20T20:49:06.312Z,13.47
2019-04-20T20:51:41.072Z,9.77
2019-04-20T20:53:54.377Z,8.60
2019-04-20T20:56:22.081Z,9.67
2019-04-20T20:58:57.312Z,18.00
2019-04-20T21:01:24.945Z,15.47
2019-04-20T21:03:52.163Z,10.50
2019-04-20T21:06:20.253Z,13.90
2019-04-20T21:08:54.249Z,13.47
2019-04-20T21:11:26.171Z,14.67
2019-04-20T21:13:52.848Z,13.97
2019-04-20T21:16:30.910Z,13.87
2019-04-20T21:19:13.265Z,17.60
2019-04-20T21:21:38.257Z,22.27
2019-04-20T21:24:10.058Z,19.60
2019-04-20T21:26:37.553Z,35.57
2019-04-20T21:29:06.037Z,31.50
2019-04-20T21:31:36.649Z,31.03
2019-04-20T21:34:13.187Z,27.07
2019-04-20T21:36:38.844Z,21.33
2019-04-20T21:39:16.174Z,24.13
2019-04-20T21:41:47.762Z,28.47
2019-04-20T21:44:15.644Z,24.80
2019-04-20T21:46:48.726Z,44.97
2019-04-20T21:49:32.279Z,36.53
2019-04-20T21:51:55.415Z,39.70
2019-04-20T21:54:18.304Z,28.67
2019-04-20T21:56:53.865Z,32.57
2019-04-20T21:59:27.230Z,42.73
2019-04-20T22:01:59.376Z,34.03
2019-04-20T22:04:22.905Z,24.43
2019-04-20T22:06:52.353Z,30.43
2019-04-20T22:09:27.138Z,25.50
2019-04-20T22:11:53.897Z,20.73
2019-04-20T22:14:26.278Z,24.97
2019-04-20T22:16:56.875Z,29.43
2019-04-20T22:19:36.721Z,31.20
2019-04-20T22:22:05.486Z,36.80
2019-04-20T22:24:42.416Z,22.53
2019-04-20T22:27:06.312Z,25.53
2019-04-20T22:29:32.172Z,23.23
2019-04-20T22:32:07.187Z,26.33
2019-04-20T22:34:33.695Z,24.40
2019-04-20T22:37:04.439Z,20.33
2019-04-20T22:39:42.109Z,20.33
2019-04-20T22:42:14.281Z,24.27
2019-04-20T22:44:41.320Z,20.57
2019-04-20T22:47:17.162Z,25.03
2019-04-20T22:49:52.539Z,30.77
2019-04-20T22:52:30.585Z,22.47
2019-04-20T22:55:01.369Z,22.57
2019-04-20T22:57:31.620Z,18.23
2019-04-20T22:59:56.869Z,19.37
2019-04-20T23:02:21.208Z,21.90
2019-04-20T23:04:48.914Z,23.23
2019-04-20T23:07:18.850Z,19.87
2019-04-20T23:09:54.147Z,23.60
2019-04-20T23:12:23.272Z,18.80
2019-04-20T23:14:52.192Z,21.30
2019-04-20T23:17:29.513Z,24.87
2019-04-20T23:19:57.476Z,19.10
2019-04-20T23:22:33.656Z,25.40
2019-04-20T23:24:57.431Z,22.73
2019-04-20T23:27:31.523Z,21.40
2019-04-20T23:29:58.661Z,19.80
2019-04-20T23:32:30.068Z,20.60
2019-04-20T23:35:04.887Z,19.20
2019-04-20T23:37:33.729Z,21.47
2019-04-20T23:40:02.838Z,20.67
2019-04-20T23:42:53.643Z,22.33
2019-04-20T23:45:31.433Z,23.13
2019-04-20T23:48:07.141Z,25.30
2019-04-20T23:50:54.446Z,23.00
2019-04-20T23:53:27.355Z,26.07
2019-04-20T23:55:41.367Z,18.93
2019-04-20T23:58:12.963Z,21.77
